createdAt,value
2023-04-27T00:02:12.829Z,101910.25
2023-04-27T00:04:40.772Z,101912.16
2023-04-27T00:07:09.156Z,101914.06
2023-04-27T00:09:36.772Z,101918.53
2023-04-27T00:12:04.581Z,101922.06
2023-04-27T00:14:32.240Z,101912.50
2023-04-27T00:16:59.928Z,101913.44
2023-04-27T00:19:30.522Z,101921.34
2023-04-27T00:22:00.097Z,101919.72
2023-04-27T00:24:27.903Z,101918.16
2023-04-27T00:26:55.574Z,101922.41
2023-04-27T00:29:23.341Z,101923.41
2023-04-27T00:31:50.947Z,101930.47
2023-04-27T00:34:18.599Z,101931.47
2023-04-27T00:36:47.622Z,101937.63
2023-04-27T00:39:15.517Z,101934.16
2023-04-27T00:41:43.465Z,101935.19
2023-04-27T00:44:11.268Z,101934.41
2023-04-27T00:46:38.990Z,101939.72
2023-04-27T00:49:06.609Z,101939.78
2023-04-27T00:51:34.330Z,101934.56
2023-04-27T00:54:03.620Z,101938.97
2023-04-27T00:56:31.876Z,101933.09
2023-04-27T00:58:59.861Z,101940.03
2023-04-27T01:01:27.700Z,101939.31
2023-04-27T01:03:55.924Z,101945.53
2023-04-27T01:06:23.874Z,101938.69
2023-04-27T01:08:51.554Z,101947.50
2023-04-27T01:11:21.680Z,101945.00
2023-04-27T01:13:49.409Z,101941.59
2023-04-27T01:16:18.610Z,101944.22
2023-04-27T01:18:46.870Z,101934.75
2023-04-27T01:21:14.558Z,101941.91
2023-04-27T01:23:44.328Z,101938.44
2023-04-27T01:26:16.515Z,101939.34
2023-04-27T01:28:44.217Z,101932.38
2023-04-27T01:31:12.513Z,101940.31
2023-04-27T01:33:40.566Z,101940.53
2023-04-27T01:36:09.383Z,101945.88
2023-04-27T01:38:37.254Z,101947.72
2023-04-27T01:41:09.017Z,101949.59
2023-04-27T01:43:37.159Z,101943.50
2023-04-27T01:46:08.529Z,101945.19
2023-04-27T01:48:36.402Z,101940.16
2023-04-27T01:51:04.441Z,101942.03
2023-04-27T01:53:32.156Z,101934.31
2023-04-27T01:56:00.377Z,101940.47
2023-04-27T01:58:29.420Z,101942.16
2023-04-27T02:00:57.116Z,101943.16
2023-04-27T02:03:25.014Z,101946.72
2023-04-27T02:05:52.898Z,101953.94
2023-04-27T02:08:20.959Z,101954.84
2023-04-27T02:10:48.709Z,101958.44
2023-04-27T02:13:16.411Z,101953.38
2023-04-27T02:15:45.578Z,101949.84
2023-04-27T02:18:14.333Z,101950.75
2023-04-27T02:20:42.139Z,101951.78
2023-04-27T02:23:09.895Z,101956.22
2023-04-27T02:25:37.921Z,101954.53
2023-04-27T02:28:05.730Z,101944.09
2023-04-27T02:30:33.865Z,101939.72
2023-04-27T02:33:02.959Z,101947.53
2023-04-27T02:35:32.483Z,101935.34
2023-04-27T02:38:00.170Z,101930.97
2023-04-27T02:40:27.756Z,101929.34
2023-04-27T02:42:55.553Z,101935.38
2023-04-27T02:45:23.242Z,101932.16
2023-04-27T02:47:51.339Z,101933.94
2023-04-27T02:50:20.599Z,101934.00
2023-04-27T02:52:48.338Z,101929.81
2023-04-27T02:55:17.237Z,101925.53
2023-04-27T02:57:45.193Z,101923.81
2023-04-27T03:00:13.904Z,101930.88
2023-04-27T03:02:41.708Z,101924.91
2023-04-27T03:05:11.128Z,101922.47
2023-04-27T03:07:40.282Z,101927.66
2023-04-27T03:10:08.786Z,101925.16
2023-04-27T03:12:36.488Z,101926.00
2023-04-27T03:15:05.059Z,101923.41
2023-04-27T03:17:32.668Z,101908.56
2023-04-27T03:20:00.651Z,101915.56
2023-04-27T03:22:28.331Z,101924.34
2023-04-27T03:24:57.616Z,101915.75
2023-04-27T03:27:25.407Z,101925.44
2023-04-27T03:29:53.871Z,101918.66
2023-04-27T03:32:21.684Z,101929.22
2023-04-27T03:34:49.392Z,101932.75
2023-04-27T03:37:17.493Z,101934.59
2023-04-27T03:39:45.566Z,101931.13
2023-04-27T03:42:14.597Z,101940.72
2023-04-27T03:44:42.229Z,101934.72
2023-04-27T03:47:10.493Z,101938.22
2023-04-27T03:49:38.160Z,101947.81
2023-04-27T03:52:06.005Z,101948.81
2023-04-27T03:54:33.680Z,101950.63
2023-04-27T03:57:02.597Z,101948.94
2023-04-27T03:59:31.829Z,101940.22
2023-04-27T04:02:01.073Z,101952.47
2023-04-27T04:04:29.389Z,101961.19
2023-04-27T04:06:57.178Z,101964.72
2023-04-27T04:09:24.916Z,101963.88
2023-04-27T04:11:52.874Z,101950.84
2023-04-27T04:14:20.654Z,101950.84
2023-04-27T04:16:49.652Z,101950.84
2023-04-27T04:19:17.314Z,101950.84
2023-04-27T04:21:44.997Z,101950.97
2023-04-27T04:24:12.649Z,101958.84
2023-04-27T04:26:40.319Z,101959.66
2023-04-27T04:29:10.714Z,101962.31
2023-04-27T04:31:38.827Z,101968.50
2023-04-27T04:34:08.629Z,101971.19
2023-04-27T04:36:36.252Z,101965.16
2023-04-27T04:39:04.271Z,101966.06
2023-04-27T04:41:32.396Z,101970.41
2023-04-27T04:44:00.655Z,101972.97
2023-04-27T04:46:28.583Z,101966.75
2023-04-27T04:48:56.361Z,101962.31
2023-04-27T04:51:25.470Z,101963.13
2023-04-27T04:53:53.131Z,101964.84
2023-04-27T04:56:21.247Z,101970.00
2023-04-27T04:58:49.025Z,101963.06
2023-04-27T05:01:16.689Z,101966.47
2023-04-27T05:03:44.603Z,101962.09
2023-04-27T05:06:12.300Z,101955.94
2023-04-27T05:08:41.326Z,101956.78
2023-04-27T05:11:08.983Z,101968.03
2023-04-27T05:13:38.289Z,101974.06
2023-04-27T05:16:06.505Z,101980.97
2023-04-27T05:18:34.525Z,101976.59
2023-04-27T05:21:02.302Z,101962.59
2023-04-27T05:23:30.041Z,101961.47
2023-04-27T05:25:59.162Z,101969.31
2023-04-27T05:28:26.967Z,101972.72
2023-04-27T05:30:54.586Z,101988.25
2023-04-27T05:33:22.196Z,101983.75
2023-04-27T05:35:49.914Z,101982.84
2023-04-27T05:38:17.689Z,101975.78
2023-04-27T05:40:45.428Z,101977.31
2023-04-27T05:43:14.658Z,101985.81
2023-04-27T05:45:42.378Z,101983.13
2023-04-27T05:48:10.110Z,101989.00
2023-04-27T05:50:37.811Z,101986.25
2023-04-27T05:53:06.160Z,101988.63
2023-04-27T05:55:33.811Z,101984.13
2023-04-27T05:58:08.242Z,101985.84
2023-04-27T06:00:38.315Z,101978.81
2023-04-27T06:03:06.203Z,101985.59
2023-04-27T06:05:35.001Z,101997.66
2023-04-27T06:08:02.958Z,101994.03
2023-04-27T06:10:30.708Z,102002.50
2023-04-27T06:12:58.409Z,101999.69
2023-04-27T06:15:26.070Z,102002.13
2023-04-27T06:17:55.219Z,102001.97
2023-04-27T06:20:23.380Z,101999.16
2023-04-27T06:22:51.177Z,101999.63
2023-04-27T06:25:18.881Z,101999.31
2023-04-27T06:27:46.552Z,102002.47
2023-04-27T06:30:14.574Z,101995.22
2023-04-27T06:32:42.268Z,102001.94
2023-04-27T06:35:12.004Z,102006.78
2023-04-27T06:37:39.653Z,101997.81
2023-04-27T06:40:08.248Z,102000.25
2023-04-27T06:42:36.321Z,102000.00
2023-04-27T06:45:04.717Z,102000.88
2023-04-27T06:47:32.519Z,101998.88
2023-04-27T06:50:00.563Z,101997.69
2023-04-27T06:52:29.686Z,102002.63
2023-04-27T06:54:57.513Z,101991.00
2023-04-27T06:57:25.192Z,101991.59
2023-04-27T06:59:53.042Z,101997.28
2023-04-27T07:02:20.793Z,101992.63
2023-04-27T07:04:48.774Z,101986.53
2023-04-27T07:07:18.884Z,101994.22
2023-04-27T07:09:47.906Z,102007.78
2023-04-27T07:12:15.758Z,102008.22
2023-04-27T07:14:43.473Z,101999.06
2023-04-27T07:17:11.221Z,101996.22
2023-04-27T07:19:38.891Z,101989.81
2023-04-27T07:22:06.646Z,101995.81
2023-04-27T07:24:34.316Z,101993.66
2023-04-27T07:27:04.131Z,101993.22
2023-04-27T07:29:32.345Z,101993.59
2023-04-27T07:32:00.476Z,101994.09
2023-04-27T07:34:35.026Z,101994.44
2023-04-27T07:37:09.393Z,101982.69
2023-04-27T07:39:37.580Z,101991.91
2023-04-27T07:42:06.856Z,101994.16
2023-04-27T07:44:34.551Z,101981.94
2023-04-27T07:47:03.571Z,101994.59
2023-04-27T07:49:31.271Z,101998.66
2023-04-27T07:51:58.995Z,101994.97
2023-04-27T07:54:26.856Z,101997.03
2023-04-27T07:56:54.884Z,101989.78
2023-04-27T07:59:24.103Z,101998.81
2023-04-27T08:01:51.803Z,101999.34
2023-04-27T08:04:19.887Z,102002.63
2023-04-27T08:06:48.054Z,101992.00
2023-04-27T08:09:16.046Z,101997.09
2023-04-27T08:11:43.841Z,101991.69
2023-04-27T08:14:13.622Z,101995.72
2023-04-27T08:16:43.948Z,101996.16
2023-04-27T08:19:12.148Z,101988.88
2023-04-27T08:21:40.394Z,101990.22
2023-04-27T08:24:08.127Z,101990.84
2023-04-27T08:26:35.851Z,101988.13
2023-04-27T08:29:15.384Z,101981.84
2023-04-27T08:31:49.024Z,101985.06
2023-04-27T08:34:17.722Z,101989.16
2023-04-27T08:36:45.409Z,101991.38
2023-04-27T08:39:13.216Z,101988.25
2023-04-27T08:41:43.531Z,101994.97
2023-04-27T08:44:11.292Z,101988.84
2023-04-27T08:46:39.592Z,101992.09
2023-04-27T08:49:09.924Z,101999.63
2023-04-27T08:51:37.924Z,101999.81
2023-04-27T08:54:05.722Z,101991.91
2023-04-27T08:56:33.428Z,102001.97
2023-04-27T08:59:02.144Z,101996.03
2023-04-27T09:01:29.861Z,101996.25
2023-04-27T09:03:58.333Z,101987.06
2023-04-27T09:06:34.675Z,101984.06
2023-04-27T09:09:02.852Z,101988.41
2023-04-27T09:11:31.499Z,101981.75
2023-04-27T09:14:00.398Z,101976.66
2023-04-27T09:16:29.326Z,101972.13
2023-04-27T09:18:58.012Z,101972.81
2023-04-27T09:21:25.918Z,101973.47
2023-04-27T09:23:55.171Z,101971.34
2023-04-27T09:26:24.139Z,101967.97
2023-04-27T09:28:54.438Z,101961.47
2023-04-27T09:31:22.776Z,101962.16
2023-04-27T09:33:56.301Z,101963.84
2023-04-27T09:36:24.507Z,101952.84
2023-04-27T09:38:52.883Z,101957.47
2023-04-27T09:41:21.935Z,101944.63
2023-04-27T09:43:50.190Z,101940.03
2023-04-27T09:46:17.937Z,101951.44
2023-04-27T09:48:45.823Z,101951.44
2023-04-27T09:51:16.179Z,101945.88
2023-04-27T09:53:48.177Z,101942.00
2023-04-27T09:56:29.279Z,101949.34
2023-04-27T09:59:07.812Z,101939.16
2023-04-27T10:01:40.934Z,101950.19
2023-04-27T10:04:24.273Z,101952.34
2023-04-27T10:07:00.480Z,101946.53
2023-04-27T10:09:30.526Z,101938.06
2023-04-27T10:12:14.975Z,101944.44
2023-04-27T10:14:52.791Z,101933.09
2023-04-27T10:17:24.673Z,101940.69
2023-04-27T10:19:58.452Z,101924.72
2023-04-27T10:22:38.544Z,101915.00
2023-04-27T10:25:14.816Z,101914.25
2023-04-27T10:27:43.941Z,101913.41
2023-04-27T10:30:12.782Z,101923.88
2023-04-27T10:32:51.865Z,101926.16
2023-04-27T10:35:20.901Z,101913.75
2023-04-27T10:37:48.865Z,101912.50
2023-04-27T10:40:19.029Z,101905.34
2023-04-27T10:42:49.637Z,101915.72
2023-04-27T10:45:31.199Z,101916.66
2023-04-27T10:48:01.843Z,101911.94
2023-04-27T10:50:29.831Z,101903.06
2023-04-27T10:53:01.636Z,101906.22
2023-04-27T10:55:29.667Z,101902.34
2023-04-27T10:57:59.182Z,101909.88
2023-04-27T11:00:28.450Z,101914.97
2023-04-27T11:02:57.239Z,101905.66
2023-04-27T11:05:28.820Z,101903.97
2023-04-27T11:08:06.594Z,101900.16
2023-04-27T11:10:35.716Z,101905.03
2023-04-27T11:13:10.115Z,101909.28
2023-04-27T11:15:48.895Z,101906.75
2023-04-27T11:18:17.387Z,101908.66
2023-04-27T11:20:46.100Z,101896.94
2023-04-27T11:23:24.176Z,101896.69
2023-04-27T11:25:52.469Z,101893.31
2023-04-27T11:28:22.375Z,101885.16
2023-04-27T11:30:57.173Z,101893.38
2023-04-27T11:33:25.009Z,101887.47
2023-04-27T11:35:52.651Z,101894.41
2023-04-27T11:38:21.927Z,101890.91
2023-04-27T11:41:00.587Z,101886.91
2023-04-27T11:43:29.927Z,101893.06
2023-04-27T11:45:58.294Z,101880.47
2023-04-27T11:48:26.978Z,101879.53
2023-04-27T11:50:54.671Z,101878.47
2023-04-27T11:53:30.621Z,101880.59
2023-04-27T11:56:01.145Z,101880.63
2023-04-27T11:58:30.974Z,101869.78
2023-04-27T12:00:58.972Z,101872.91
2023-04-27T12:03:27.269Z,101878.28
2023-04-27T12:05:55.252Z,101872.03
2023-04-27T12:08:23.069Z,101871.78
2023-04-27T12:10:50.993Z,101879.63
2023-04-27T12:13:18.665Z,101866.50
2023-04-27T12:15:47.756Z,101860.34
2023-04-27T12:18:15.592Z,101868.31
2023-04-27T12:20:43.335Z,101866.91
2023-04-27T12:23:11.147Z,101876.00
2023-04-27T12:25:41.031Z,101870.88
2023-04-27T12:28:08.883Z,101862.28
2023-04-27T12:30:36.902Z,101862.72
2023-04-27T12:33:10.897Z,101860.06
2023-04-27T12:35:38.920Z,101860.31
2023-04-27T12:38:07.129Z,101869.56
2023-04-27T12:40:35.184Z,101861.63
2023-04-27T12:43:02.886Z,101860.59
2023-04-27T12:45:30.622Z,101861.88
2023-04-27T12:48:03.831Z,101855.66
2023-04-27T12:50:33.843Z,101856.56
2023-04-27T12:53:01.488Z,101851.34
2023-04-27T12:55:33.566Z,101857.78
2023-04-27T12:58:01.993Z,101852.38
2023-04-27T13:00:30.165Z,101853.63
2023-04-27T13:02:58.390Z,101844.25
2023-04-27T13:05:26.457Z,101838.38
2023-04-27T13:07:55.553Z,101840.25
2023-04-27T13:10:23.268Z,101833.19
2023-04-27T13:12:51.154Z,101827.03
2023-04-27T13:15:19.233Z,101828.50
2023-04-27T13:17:46.971Z,101819.19
2023-04-27T13:20:15.411Z,101822.31
2023-04-27T13:22:43.453Z,101813.84
2023-04-27T13:25:13.211Z,101816.50
2023-04-27T13:27:40.966Z,101814.84
2023-04-27T13:30:10.205Z,101814.25
2023-04-27T13:32:37.995Z,101798.78
2023-04-27T13:35:07.660Z,101810.28
2023-04-27T13:37:35.550Z,101815.94
2023-04-27T13:40:03.398Z,101811.84
2023-04-27T13:42:32.484Z,101810.63
2023-04-27T13:45:00.892Z,101807.50
2023-04-27T13:47:29.971Z,101800.25
2023-04-27T13:49:57.663Z,101808.72
2023-04-27T13:52:25.370Z,101799.78
2023-04-27T13:54:52.980Z,101791.09
2023-04-27T13:57:20.629Z,101789.19
2023-04-27T13:59:49.650Z,101793.41
2023-04-27T14:02:17.361Z,101787.00
2023-04-27T14:04:45.075Z,101782.91
2023-04-27T14:07:12.831Z,101788.56
2023-04-27T14:09:41.033Z,101777.34
2023-04-27T14:12:09.323Z,101771.06
2023-04-27T14:14:37.425Z,101771.78
2023-04-27T14:17:07.010Z,101777.94
2023-04-27T14:19:34.790Z,101778.78
2023-04-27T14:22:04.468Z,101777.09
2023-04-27T14:24:32.168Z,101781.91
2023-04-27T14:26:59.843Z,101773.47
2023-04-27T14:29:27.463Z,101767.31
2023-04-27T14:31:56.027Z,101773.81
2023-04-27T14:34:25.545Z,101773.94
2023-04-27T14:36:53.299Z,101771.66
2023-04-27T14:39:20.946Z,101770.34
2023-04-27T14:41:48.588Z,101771.56
2023-04-27T14:44:16.325Z,101760.56
2023-04-27T14:46:44.077Z,101764.06
2023-04-27T14:49:11.959Z,101758.53
2023-04-27T14:51:42.755Z,101752.00
2023-04-27T14:54:11.274Z,101753.53
2023-04-27T14:56:38.918Z,101752.59
2023-04-27T14:59:06.582Z,101752.38
2023-04-27T15:01:34.385Z,101753.94
2023-04-27T15:04:02.210Z,101746.69
2023-04-27T15:06:30.409Z,101740.38
2023-04-27T15:08:59.463Z,101741.72
2023-04-27T15:11:27.190Z,101741.09
2023-04-27T15:13:54.837Z,101744.72
2023-04-27T15:16:22.560Z,101742.06
2023-04-27T15:18:50.249Z,101746.50
2023-04-27T15:21:17.920Z,101742.78
2023-04-27T15:23:45.597Z,101731.44
2023-04-27T15:26:14.648Z,101742.06
2023-04-27T15:28:42.352Z,101731.53
2023-04-27T15:31:10.221Z,101731.53
2023-04-27T15:33:37.958Z,101735.78
2023-04-27T15:36:06.091Z,101726.63
2023-04-27T15:38:33.793Z,101722.03
2023-04-27T15:41:01.503Z,101714.06
2023-04-27T15:43:30.942Z,101717.69
2023-04-27T15:45:58.557Z,101713.47
2023-04-27T15:48:26.289Z,101708.50
2023-04-27T15:50:53.912Z,101716.22
2023-04-27T15:53:21.795Z,101709.22
2023-04-27T15:55:49.485Z,101711.88
2023-04-27T15:58:17.150Z,101710.91
2023-04-27T16:00:46.316Z,101705.59
2023-04-27T16:03:14.453Z,101705.81
2023-04-27T16:05:42.321Z,101711.63
2023-04-27T16:08:09.986Z,101700.41
2023-04-27T16:10:37.670Z,101702.44
2023-04-27T16:13:05.425Z,101699.56
2023-04-27T16:15:33.312Z,101689.16
2023-04-27T16:18:02.423Z,101679.66
2023-04-27T16:20:31.650Z,101673.97
2023-04-27T16:23:00.056Z,101678.44
2023-04-27T16:25:27.835Z,101681.22
2023-04-27T16:27:55.609Z,101672.28
2023-04-27T16:30:24.255Z,101666.00
2023-04-27T16:32:52.867Z,101668.91
2023-04-27T16:35:22.142Z,101661.41
2023-04-27T16:37:50.612Z,101660.69
2023-04-27T16:40:18.435Z,101658.97
2023-04-27T16:42:46.055Z,101660.91
2023-04-27T16:45:13.767Z,101660.91
2023-04-27T16:47:41.916Z,101655.59
2023-04-27T16:50:10.659Z,101654.75
2023-04-27T16:52:39.701Z,101645.25
2023-04-27T16:55:08.349Z,101653.91
2023-04-27T16:57:36.150Z,101660.19
2023-04-27T17:00:06.014Z,101656.81
2023-04-27T17:02:33.835Z,101660.41
2023-04-27T17:05:01.802Z,101659.69
2023-04-27T17:07:32.847Z,101652.69
2023-04-27T17:10:02.053Z,101653.66
2023-04-27T17:12:29.861Z,101650.38
2023-04-27T17:14:57.619Z,101644.50
2023-04-27T17:17:25.377Z,101643.66
2023-04-27T17:19:53.395Z,101640.28
2023-04-27T17:22:21.122Z,101644.94
2023-04-27T17:24:48.783Z,101633.50
2023-04-27T17:27:17.875Z,101638.22
2023-04-27T17:29:45.602Z,101631.22
2023-04-27T17:32:13.387Z,101623.34
2023-04-27T17:34:42.982Z,101626.13
2023-04-27T17:37:10.912Z,101630.00
2023-04-27T17:39:38.811Z,101614.31
2023-04-27T17:42:06.809Z,101617.91
2023-04-27T17:44:39.334Z,101616.22
2023-04-27T17:47:07.058Z,101604.91
2023-04-27T17:49:34.988Z,101591.03
2023-04-27T17:52:03.150Z,101601.88
2023-04-27T17:54:30.942Z,101606.53
2023-04-27T17:56:58.814Z,101592.56
2023-04-27T17:59:27.537Z,101601.50
2023-04-27T18:01:56.627Z,101605.09
2023-04-27T18:04:24.405Z,101596.53
2023-04-27T18:06:52.305Z,101600.84
2023-04-27T18:09:20.142Z,101595.81
2023-04-27T18:11:47.850Z,101597.72
2023-04-27T18:14:15.532Z,101603.16
2023-04-27T18:16:43.570Z,101586.63
2023-04-27T18:19:13.108Z,101592.03
2023-04-27T18:21:41.311Z,101593.97
2023-04-27T18:24:09.360Z,101597.47
2023-04-27T18:26:37.213Z,101593.97
2023-04-27T18:29:05.253Z,101595.78
2023-04-27T18:31:33.058Z,101588.88
2023-04-27T18:34:00.706Z,101596.94
2023-04-27T18:36:29.781Z,101592.50
2023-04-27T18:38:58.139Z,101596.09
2023-04-27T18:41:25.940Z,101606.72
2023-04-27T18:43:53.642Z,101602.50
2023-04-27T18:46:21.857Z,101604.31
2023-04-27T18:48:49.579Z,101612.47
2023-04-27T18:51:17.276Z,101615.22
2023-04-27T18:53:46.296Z,101614.38
2023-04-27T18:56:14.791Z,101612.69
2023-04-27T18:58:42.566Z,101608.38
2023-04-27T19:01:11.027Z,101618.00
2023-04-27T19:03:39.286Z,101609.22
2023-04-27T19:06:07.161Z,101607.41
2023-04-27T19:08:34.880Z,101610.22
2023-04-27T19:11:03.941Z,101592.63
2023-04-27T19:13:31.602Z,101592.75
2023-04-27T19:15:59.560Z,101586.94
2023-04-27T19:18:27.778Z,101597.66
2023-04-27T19:20:55.674Z,101603.94
2023-04-27T19:23:23.403Z,101614.75
2023-04-27T19:25:51.863Z,101599.84
2023-04-27T19:28:24.337Z,101611.28
2023-04-27T19:30:52.515Z,101605.22
2023-04-27T19:33:20.704Z,101600.88
2023-04-27T19:35:48.689Z,101596.66
2023-04-27T19:38:16.427Z,101592.31
2023-04-27T19:40:44.086Z,101579.28
2023-04-27T19:43:11.998Z,101583.88
2023-04-27T19:45:41.936Z,101581.44
2023-04-27T19:48:09.682Z,101589.41
2023-04-27T19:50:38.647Z,101588.66
2023-04-27T19:53:06.292Z,101603.69
2023-04-27T19:55:34.154Z,101594.06
2023-04-27T19:58:01.912Z,101598.63
2023-04-27T20:00:29.613Z,101587.31
2023-04-27T20:02:58.830Z,101598.03
2023-04-27T20:05:27.040Z,101589.13
2023-04-27T20:07:54.756Z,101580.41
2023-04-27T20:10:22.678Z,101586.06
2023-04-27T20:12:56.592Z,101587.09
2023-04-27T20:15:25.166Z,101581.09
2023-04-27T20:17:53.009Z,101582.06
2023-04-27T20:20:22.461Z,101576.03
2023-04-27T20:22:50.160Z,101576.22
2023-04-27T20:25:19.555Z,101573.81
2023-04-27T20:27:47.668Z,101576.72
2023-04-27T20:30:16.048Z,101574.25
2023-04-27T20:32:43.747Z,101574.25
2023-04-27T20:35:11.802Z,101569.09
2023-04-27T20:37:43.448Z,101564.88
2023-04-27T20:40:14.438Z,101549.00
2023-04-27T20:42:42.505Z,101553.53
2023-04-27T20:45:11.405Z,101546.78
2023-04-27T20:47:39.246Z,101549.53
2023-04-27T20:50:08.055Z,101553.03
2023-04-27T20:52:35.884Z,101554.91
2023-04-27T20:55:06.327Z,101559.28
2023-04-27T20:57:34.031Z,101551.53
2023-04-27T21:00:01.904Z,101552.38
2023-04-27T21:02:29.657Z,101554.06
2023-04-27T21:04:57.492Z,101536.63
2023-04-27T21:07:25.212Z,101539.38
2023-04-27T21:09:52.864Z,101540.47
2023-04-27T21:12:22.756Z,101543.13
2023-04-27T21:14:50.487Z,101534.53
2023-04-27T21:17:18.140Z,101538.88
2023-04-27T21:19:45.972Z,101528.41
2023-04-27T21:22:13.599Z,101520.56
2023-04-27T21:24:41.349Z,101509.25
2023-04-27T21:27:09.036Z,101502.59
2023-04-27T21:29:38.174Z,101505.25
2023-04-27T21:32:06.154Z,101496.59
2023-04-27T21:34:33.825Z,101496.47
2023-04-27T21:37:01.543Z,101488.53
2023-04-27T21:39:29.430Z,101489.59
2023-04-27T21:41:57.112Z,101471.53
2023-04-27T21:44:24.771Z,101475.03
2023-04-27T21:46:53.833Z,101471.41
2023-04-27T21:49:21.568Z,101472.69
2023-04-27T21:51:49.224Z,101476.06
2023-04-27T21:54:17.134Z,101473.53
2023-04-27T21:56:45.071Z,101469.31
2023-04-27T21:59:12.773Z,101461.38
2023-04-27T22:01:40.556Z,101460.66
2023-04-27T22:04:09.830Z,101461.50
2023-04-27T22:06:37.998Z,101451.00
2023-04-27T22:09:07.727Z,101450.28
2023-04-27T22:11:35.870Z,101447.44
2023-04-27T22:14:03.583Z,101438.03
2023-04-27T22:16:31.243Z,101425.97
2023-04-27T22:18:59.627Z,101428.72
2023-04-27T22:21:28.873Z,101432.44
2023-04-27T22:23:56.609Z,101435.09
2023-04-27T22:26:24.509Z,101430.63
2023-04-27T22:28:52.256Z,101434.13
2023-04-27T22:31:20.044Z,101430.63
2023-04-27T22:33:47.724Z,101420.91
2023-04-27T22:36:15.459Z,101415.00
2023-04-27T22:38:44.570Z,101421.13
2023-04-27T22:41:12.355Z,101415.00
2023-04-27T22:43:40.129Z,101403.59
2023-04-27T22:46:07.812Z,101394.91
2023-04-27T22:48:35.509Z,101399.22
2023-04-27T22:51:03.150Z,101396.59
2023-04-27T22:53:30.838Z,101394.19
2023-04-27T22:55:59.958Z,101396.09
2023-04-27T22:58:27.703Z,101409.19
2023-04-27T23:00:55.323Z,101401.38
2023-04-27T23:03:23.206Z,101390.97
2023-04-27T23:05:53.546Z,101397.22
2023-04-27T23:08:25.013Z,101398.31
2023-04-27T23:10:53.531Z,101392.16
2023-04-27T23:13:22.556Z,101380.13
2023-04-27T23:15:50.255Z,101373.66
2023-04-27T23:18:17.944Z,101377.28
2023-04-27T23:20:45.689Z,101383.50
2023-04-27T23:23:13.354Z,101365.00
2023-04-27T23:25:41.111Z,101359.72
2023-04-27T23:28:08.759Z,101353.81
2023-04-27T23:30:38.084Z,101360.66
2023-04-27T23:33:06.021Z,101355.38
2023-04-27T23:35:33.904Z,101348.63
2023-04-27T23:38:01.564Z,101351.03
2023-04-27T23:40:29.237Z,101344.31
2023-04-27T23:42:57.210Z,101338.06
2023-04-27T23:45:24.985Z,101338.06
2023-04-27T23:47:54.104Z,101332.88
2023-04-27T23:50:21.910Z,101333.94
2023-04-27T23:52:49.800Z,101321.19
2023-04-27T23:55:17.755Z,101321.19
2023-04-27T23:57:45.538Z,101326.47
